sensor_id;sensor_type;location;lat;lon;timestamp;P1;durP1;ratioP1;P2;durP2;ratioP2
2610;SDS011;5612;51.134;17.058;2023-07-31T00:00:37;4.20;;;3.20;;
2610;SDS011;5612;51.134;17.058;2023-07-31T00:03:07;3.83;;;3.53;;
2610;SDS011;5612;51.134;17.058;2023-07-31T00:05:39;4.77;;;3.50;;
2610;SDS011;5612;51.134;17.058;2023-07-31T00:08:08;3.17;;;3.00;;
2610;SDS011;5612;51.134;17.058;2023-07-31T00:10:38;5.40;;;3.33;;
2610;SDS011;5612;51.134;17.058;2023-07-31T00:13:08;3.33;;;3.03;;
2610;SDS011;5612;51.134;17.058;2023-07-31T00:15:38;3.77;;;3.37;;
2610;SDS011;5612;51.134;17.058;2023-07-31T00:18:08;3.70;;;3.23;;
2610;SDS011;5612;51.134;17.058;2023-07-31T00:20:39;4.73;;;3.33;;
2610;SDS011;5612;51.134;17.058;2023-07-31T00:23:09;3.60;;;3.30;;
2610;SDS011;5612;51.134;17.058;2023-07-31T00:25:39;3.33;;;3.13;;
2610;SDS011;5612;51.134;17.058;2023-07-31T00:28:08;3.70;;;3.37;;
2610;SDS011;5612;51.134;17.058;2023-07-31T00:30:39;4.13;;;3.83;;
2610;SDS011;5612;51.134;17.058;2023-07-31T00:33:08;4.80;;;3.53;;
2610;SDS011;5612;51.134;17.058;2023-07-31T00:35:40;4.13;;;3.77;;
2610;SDS011;5612;51.134;17.058;2023-07-31T00:38:09;3.70;;;3.50;;
2610;SDS011;5612;51.134;17.058;2023-07-31T00:40:39;4.27;;;3.10;;
2610;SDS011;5612;51.134;17.058;2023-07-31T00:43:08;4.00;;;3.80;;
2610;SDS011;5612;51.134;17.058;2023-07-31T00:45:38;3.03;;;2.87;;
2610;SDS011;5612;51.134;17.058;2023-07-31T00:48:08;7.30;;;3.90;;
2610;SDS011;5612;51.134;17.058;2023-07-31T00:50:40;4.20;;;3.83;;
2610;SDS011;5612;51.134;17.058;2023-07-31T00:53:10;4.03;;;3.73;;
2610;SDS011;5612;51.134;17.058;2023-07-31T00:55:40;5.80;;;3.53;;
2610;SDS011;5612;51.134;17.058;2023-07-31T00:58:11;5.30;;;3.23;;
2610;SDS011;5612;51.134;17.058;2023-07-31T01:00:41;4.23;;;3.80;;
2610;SDS011;5612;51.134;17.058;2023-07-31T01:03:11;4.30;;;3.27;;
2610;SDS011;5612;51.134;17.058;2023-07-31T01:05:46;3.50;;;3.20;;
2610;SDS011;5612;51.134;17.058;2023-07-31T01:08:24;4.13;;;3.40;;
2610;SDS011;5612;51.134;17.058;2023-07-31T01:11:05;3.57;;;3.30;;
2610;SDS011;5612;51.134;17.058;2023-07-31T01:13:42;2.87;;;2.73;;
2610;SDS011;5612;51.134;17.058;2023-07-31T01:16:13;5.33;;;3.23;;
2610;SDS011;5612;51.134;17.058;2023-07-31T01:18:42;4.10;;;3.23;;
2610;SDS011;5612;51.134;17.058;2023-07-31T01:21:18;4.33;;;3.10;;
2610;SDS011;5612;51.134;17.058;2023-07-31T01:24:07;3.13;;;2.90;;
2610;SDS011;5612;51.134;17.058;2023-07-31T01:26:49;3.87;;;2.93;;
2610;SDS011;5612;51.134;17.058;2023-07-31T01:29:31;3.63;;;3.00;;
2610;SDS011;5612;51.134;17.058;2023-07-31T01:32:06;7.00;;;2.80;;
2610;SDS011;5612;51.134;17.058;2023-07-31T01:34:38;3.20;;;2.90;;
2610;SDS011;5612;51.134;17.058;2023-07-31T01:37:10;3.57;;;3.27;;
2610;SDS011;5612;51.134;17.058;2023-07-31T01:39:39;5.70;;;2.80;;
2610;SDS011;5612;51.134;17.058;2023-07-31T01:42:10;6.67;;;3.97;;
2610;SDS011;5612;51.134;17.058;2023-07-31T01:44:41;4.50;;;3.40;;
2610;SDS011;5612;51.134;17.058;2023-07-31T01:47:11;4.07;;;2.97;;
2610;SDS011;5612;51.134;17.058;2023-07-31T01:49:40;15.13;;;3.40;;
2610;SDS011;5612;51.134;17.058;2023-07-31T01:52:10;2.83;;;2.63;;
2610;SDS011;5612;51.134;17.058;2023-07-31T01:54:39;2.73;;;2.63;;
2610;SDS011;5612;51.134;17.058;2023-07-31T01:57:11;4.80;;;3.40;;
2610;SDS011;5612;51.134;17.058;2023-07-31T01:59:40;3.80;;;3.30;;
2610;SDS011;5612;51.134;17.058;2023-07-31T02:02:10;4.53;;;2.47;;
2610;SDS011;5612;51.134;17.058;2023-07-31T02:04:40;5.30;;;3.27;;
2610;SDS011;5612;51.134;17.058;2023-07-31T02:07:09;5.00;;;2.63;;
2610;SDS011;5612;51.134;17.058;2023-07-31T02:09:39;3.30;;;3.00;;
2610;SDS011;5612;51.134;17.058;2023-07-31T02:12:08;6.97;;;3.63;;
2610;SDS011;5612;51.134;17.058;2023-07-31T02:14:41;3.73;;;3.43;;
2610;SDS011;5612;51.134;17.058;2023-07-31T02:17:11;4.67;;;3.10;;
2610;SDS011;5612;51.134;17.058;2023-07-31T02:19:40;5.50;;;3.20;;
2610;SDS011;5612;51.134;17.058;2023-07-31T02:22:10;8.80;;;3.73;;
2610;SDS011;5612;51.134;17.058;2023-07-31T02:24:40;4.43;;;3.27;;
2610;SDS011;5612;51.134;17.058;2023-07-31T02:27:11;3.17;;;2.87;;
2610;SDS011;5612;51.134;17.058;2023-07-31T02:29:41;3.53;;;3.20;;
2610;SDS011;5612;51.134;17.058;2023-07-31T02:32:11;4.10;;;3.00;;
2610;SDS011;5612;51.134;17.058;2023-07-31T02:34:41;5.30;;;4.83;;
2610;SDS011;5612;51.134;17.058;2023-07-31T02:37:10;4.27;;;3.13;;
2610;SDS011;5612;51.134;17.058;2023-07-31T02:39:40;3.77;;;3.03;;
2610;SDS011;5612;51.134;17.058;2023-07-31T02:42:14;5.30;;;2.97;;
2610;SDS011;5612;51.134;17.058;2023-07-31T02:44:44;4.37;;;3.60;;
2610;SDS011;5612;51.134;17.058;2023-07-31T02:47:13;3.53;;;3.23;;
2610;SDS011;5612;51.134;17.058;2023-07-31T02:49:43;6.50;;;2.80;;
2610;SDS011;5612;51.134;17.058;2023-07-31T02:52:12;5.50;;;3.33;;
2610;SDS011;5612;51.134;17.058;2023-07-31T02:54:42;3.90;;;3.23;;
2610;SDS011;5612;51.134;17.058;2023-07-31T02:57:13;3.10;;;2.90;;
2610;SDS011;5612;51.134;17.058;2023-07-31T02:59:44;3.90;;;2.80;;
2610;SDS011;5612;51.134;17.058;2023-07-31T03:02:13;3.90;;;2.67;;
2610;SDS011;5612;51.134;17.058;2023-07-31T03:04:43;3.37;;;3.07;;
2610;SDS011;5612;51.134;17.058;2023-07-31T03:07:13;8.03;;;3.30;;
2610;SDS011;5612;51.134;17.058;2023-07-31T03:09:42;4.73;;;3.60;;
2610;SDS011;5612;51.134;17.058;2023-07-31T03:12:14;4.50;;;3.20;;
2610;SDS011;5612;51.134;17.058;2023-07-31T03:14:43;4.67;;;4.27;;
2610;SDS011;5612;51.134;17.058;2023-07-31T03:17:15;7.67;;;3.50;;
2610;SDS011;5612;51.134;17.058;2023-07-31T03:19:44;5.30;;;3.93;;
2610;SDS011;5612;51.134;17.058;2023-07-31T03:22:14;4.30;;;3.50;;
2610;SDS011;5612;51.134;17.058;2023-07-31T03:24:44;4.93;;;3.07;;
2610;SDS011;5612;51.134;17.058;2023-07-31T03:27:15;6.90;;;3.33;;
2610;SDS011;5612;51.134;17.058;2023-07-31T03:29:44;3.97;;;3.07;;
2610;SDS011;5612;51.134;17.058;2023-07-31T03:32:14;8.83;;;3.97;;
2610;SDS011;5612;51.134;17.058;2023-07-31T03:34:43;6.43;;;4.07;;
2610;SDS011;5612;51.134;17.058;2023-07-31T03:37:13;4.77;;;2.90;;
2610;SDS011;5612;51.134;17.058;2023-07-31T03:39:43;3.57;;;3.17;;
2610;SDS011;5612;51.134;17.058;2023-07-31T03:42:12;5.87;;;3.00;;
2610;SDS011;5612;51.134;17.058;2023-07-31T03:44:43;4.20;;;3.60;;
2610;SDS011;5612;51.134;17.058;2023-07-31T03:47:13;4.93;;;3.80;;
2610;SDS011;5612;51.134;17.058;2023-07-31T03:49:42;5.87;;;3.23;;
2610;SDS011;5612;51.134;17.058;2023-07-31T03:52:12;5.37;;;3.50;;
2610;SDS011;5612;51.134;17.058;2023-07-31T03:54:41;8.63;;;3.30;;
2610;SDS011;5612;51.134;17.058;2023-07-31T03:57:12;7.57;;;3.83;;
2610;SDS011;5612;51.134;17.058;2023-07-31T03:59:43;9.27;;;3.47;;
2610;SDS011;5612;51.134;17.058;2023-07-31T04:02:13;4.20;;;3.00;;
2610;SDS011;5612;51.134;17.058;2023-07-31T04:04:43;7.03;;;2.90;;
2610;SDS011;5612;51.134;17.058;2023-07-31T04:07:13;6.90;;;3.80;;
2610;SDS011;5612;51.134;17.058;2023-07-31T04:09:43;4.60;;;3.50;;
2610;SDS011;5612;51.134;17.058;2023-07-31T04:12:12;5.93;;;3.77;;
2610;SDS011;5612;51.134;17.058;2023-07-31T04:14:43;8.00;;;3.47;;
2610;SDS011;5612;51.134;17.058;2023-07-31T04:17:13;4.27;;;3.03;;
2610;SDS011;5612;51.134;17.058;2023-07-31T04:19:43;2.90;;;2.57;;
2610;SDS011;5612;51.134;17.058;2023-07-31T04:22:13;5.33;;;3.87;;
2610;SDS011;5612;51.134;17.058;2023-07-31T04:24:45;3.73;;;2.90;;
2610;SDS011;5612;51.134;17.058;2023-07-31T04:27:16;3.27;;;2.83;;
2610;SDS011;5612;51.134;17.058;2023-07-31T04:29:47;4.57;;;3.30;;
2610;SDS011;5612;51.134;17.058;2023-07-31T04:32:17;5.57;;;3.60;;
2610;SDS011;5612;51.134;17.058;2023-07-31T04:34:48;5.20;;;3.30;;
2610;SDS011;5612;51.134;17.058;2023-07-31T04:37:17;3.20;;;2.80;;
2610;SDS011;5612;51.134;17.058;2023-07-31T04:39:47;4.27;;;2.97;;
2610;SDS011;5612;51.134;17.058;2023-07-31T04:42:17;3.67;;;3.03;;
2610;SDS011;5612;51.134;17.058;2023-07-31T04:44:48;6.10;;;3.20;;
2610;SDS011;5612;51.134;17.058;2023-07-31T04:47:18;4.03;;;2.90;;
2610;SDS011;5612;51.134;17.058;2023-07-31T04:49:47;7.73;;;3.90;;
2610;SDS011;5612;51.134;17.058;2023-07-31T04:52:17;2.87;;;2.60;;
2610;SDS011;5612;51.134;17.058;2023-07-31T04:54:46;4.00;;;2.90;;
2610;SDS011;5612;51.134;17.058;2023-07-31T04:57:16;3.13;;;2.73;;
2610;SDS011;5612;51.134;17.058;2023-07-31T04:59:45;6.03;;;3.27;;
2610;SDS011;5612;51.134;17.058;2023-07-31T05:02:17;4.67;;;3.00;;
2610;SDS011;5612;51.134;17.058;2023-07-31T05:04:47;6.33;;;3.67;;
2610;SDS011;5612;51.134;17.058;2023-07-31T05:07:16;4.13;;;3.30;;
2610;SDS011;5612;51.134;17.058;2023-07-31T05:09:46;6.73;;;2.83;;
2610;SDS011;5612;51.134;17.058;2023-07-31T05:12:15;5.57;;;4.10;;
2610;SDS011;5612;51.134;17.058;2023-07-31T05:14:45;4.90;;;3.13;;
2610;SDS011;5612;51.134;17.058;2023-07-31T05:17:16;4.67;;;3.23;;
2610;SDS011;5612;51.134;17.058;2023-07-31T05:19:46;6.97;;;3.20;;
2610;SDS011;5612;51.134;17.058;2023-07-31T05:22:15;5.90;;;3.63;;
2610;SDS011;5612;51.134;17.058;2023-07-31T05:24:45;6.93;;;3.17;;
2610;SDS011;5612;51.134;17.058;2023-07-31T05:27:15;6.60;;;3.33;;
2610;SDS011;5612;51.134;17.058;2023-07-31T05:29:46;5.70;;;3.50;;
2610;SDS011;5612;51.134;17.058;2023-07-31T05:32:17;5.83;;;3.00;;
2610;SDS011;5612;51.134;17.058;2023-07-31T05:34:47;3.50;;;2.87;;
2610;SDS011;5612;51.134;17.058;2023-07-31T05:37:19;5.87;;;3.30;;
2610;SDS011;5612;51.134;17.058;2023-07-31T05:39:49;4.80;;;3.07;;
2610;SDS011;5612;51.134;17.058;2023-07-31T05:42:19;3.43;;;2.50;;
2610;SDS011;5612;51.134;17.058;2023-07-31T05:44:50;4.10;;;2.70;;
2610;SDS011;5612;51.134;17.058;2023-07-31T05:47:20;4.90;;;2.80;;
2610;SDS011;5612;51.134;17.058;2023-07-31T05:49:50;3.33;;;2.77;;
2610;SDS011;5612;51.134;17.058;2023-07-31T05:52:20;5.33;;;2.73;;
2610;SDS011;5612;51.134;17.058;2023-07-31T05:54:49;2.40;;;2.20;;
2610;SDS011;5612;51.134;17.058;2023-07-31T05:57:19;4.50;;;2.43;;
2610;SDS011;5612;51.134;17.058;2023-07-31T05:59:50;2.87;;;2.40;;
2610;SDS011;5612;51.134;17.058;2023-07-31T06:02:20;2.97;;;2.20;;
2610;SDS011;5612;51.134;17.058;2023-07-31T06:04:50;3.13;;;2.33;;
2610;SDS011;5612;51.134;17.058;2023-07-31T06:07:20;4.30;;;2.30;;
2610;SDS011;5612;51.134;17.058;2023-07-31T06:09:49;3.40;;;2.50;;
2610;SDS011;5612;51.134;17.058;2023-07-31T06:12:19;3.20;;;2.03;;
2610;SDS011;5612;51.134;17.058;2023-07-31T06:14:51;2.60;;;2.40;;
2610;SDS011;5612;51.134;17.058;2023-07-31T06:17:20;3.87;;;3.10;;
2610;SDS011;5612;51.134;17.058;2023-07-31T06:19:50;2.27;;;2.10;;
2610;SDS011;5612;51.134;17.058;2023-07-31T06:22:20;4.67;;;2.47;;
2610;SDS011;5612;51.134;17.058;2023-07-31T06:24:51;3.00;;;1.77;;
2610;SDS011;5612;51.134;17.058;2023-07-31T06:27:20;2.20;;;1.70;;
2610;SDS011;5612;51.134;17.058;2023-07-31T06:29:52;4.23;;;1.70;;
2610;SDS011;5612;51.134;17.058;2023-07-31T06:32:21;3.43;;;2.23;;
2610;SDS011;5612;51.134;17.058;2023-07-31T06:34:51;3.90;;;2.30;;
2610;SDS011;5612;51.134;17.058;2023-07-31T06:37:21;3.03;;;2.07;;
2610;SDS011;5612;51.134;17.058;2023-07-31T06:39:50;3.50;;;2.67;;
2610;SDS011;5612;51.134;17.058;2023-07-31T06:42:20;2.53;;;2.33;;
2610;SDS011;5612;51.134;17.058;2023-07-31T06:44:50;3.47;;;2.13;;
2610;SDS011;5612;51.134;17.058;2023-07-31T06:47:21;3.57;;;2.00;;
2610;SDS011;5612;51.134;17.058;2023-07-31T06:49:51;3.53;;;2.90;;
2610;SDS011;5612;51.134;17.058;2023-07-31T06:52:20;3.90;;;3.07;;
2610;SDS011;5612;51.134;17.058;2023-07-31T06:55:00;5.60;;;2.57;;
2610;SDS011;5612;51.134;17.058;2023-07-31T06:57:32;5.03;;;2.40;;
2610;SDS011;5612;51.134;17.058;2023-07-31T07:00:04;5.53;;;3.03;;
2610;SDS011;5612;51.134;17.058;2023-07-31T07:02:35;2.13;;;1.90;;
2610;SDS011;5612;51.134;17.058;2023-07-31T07:05:05;3.20;;;2.13;;
2610;SDS011;5612;51.134;17.058;2023-07-31T07:07:36;2.07;;;1.97;;
2610;SDS011;5612;51.134;17.058;2023-07-31T07:10:06;4.70;;;1.80;;
2610;SDS011;5612;51.134;17.058;2023-07-31T07:12:37;4.80;;;2.30;;
2610;SDS011;5612;51.134;17.058;2023-07-31T07:15:08;3.13;;;2.37;;
2610;SDS011;5612;51.134;17.058;2023-07-31T07:17:38;2.57;;;2.37;;
2610;SDS011;5612;51.134;17.058;2023-07-31T07:20:08;3.23;;;2.47;;
2610;SDS011;5612;51.134;17.058;2023-07-31T07:22:38;3.23;;;2.13;;
2610;SDS011;5612;51.134;17.058;2023-07-31T07:25:10;3.17;;;1.90;;
2610;SDS011;5612;51.134;17.058;2023-07-31T07:27:40;4.63;;;2.00;;
2610;SDS011;5612;51.134;17.058;2023-07-31T07:30:11;2.90;;;2.00;;
2610;SDS011;5612;51.134;17.058;2023-07-31T07:32:41;2.80;;;1.83;;
2610;SDS011;5612;51.134;17.058;2023-07-31T07:35:11;1.87;;;1.70;;
2610;SDS011;5612;51.134;17.058;2023-07-31T07:37:41;3.17;;;2.13;;
2610;SDS011;5612;51.134;17.058;2023-07-31T07:40:11;6.47;;;2.20;;
2610;SDS011;5612;51.134;17.058;2023-07-31T07:42:41;4.37;;;2.63;;
2610;SDS011;5612;51.134;17.058;2023-07-31T07:45:12;3.40;;;1.87;;
2610;SDS011;5612;51.134;17.058;2023-07-31T07:47:42;7.03;;;2.10;;
2610;SDS011;5612;51.134;17.058;2023-07-31T07:50:11;3.30;;;1.90;;
2610;SDS011;5612;51.134;17.058;2023-07-31T07:52:41;2.00;;;1.90;;
2610;SDS011;5612;51.134;17.058;2023-07-31T07:55:11;2.40;;;1.87;;
2610;SDS011;5612;51.134;17.058;2023-07-31T07:57:40;5.60;;;2.00;;
2610;SDS011;5612;51.134;17.058;2023-07-31T08:00:13;2.60;;;1.73;;
2610;SDS011;5612;51.134;17.058;2023-07-31T08:02:44;4.23;;;1.70;;
2610;SDS011;5612;51.134;17.058;2023-07-31T08:05:14;3.23;;;1.80;;
2610;SDS011;5612;51.134;17.058;2023-07-31T08:07:44;1.80;;;1.70;;
2610;SDS011;5612;51.134;17.058;2023-07-31T08:10:14;2.93;;;1.73;;
2610;SDS011;5612;51.134;17.058;2023-07-31T08:12:43;2.77;;;1.57;;
2610;SDS011;5612;51.134;17.058;2023-07-31T08:15:15;2.20;;;1.80;;
2610;SDS011;5612;51.134;17.058;2023-07-31T08:17:44;3.33;;;2.00;;
2610;SDS011;5612;51.134;17.058;2023-07-31T08:20:14;1.57;;;1.10;;
2610;SDS011;5612;51.134;17.058;2023-07-31T08:22:44;3.23;;;1.60;;
2610;SDS011;5612;51.134;17.058;2023-07-31T08:25:14;5.10;;;1.77;;
2610;SDS011;5612;51.134;17.058;2023-07-31T08:27:44;1.50;;;1.40;;
2610;SDS011;5612;51.134;17.058;2023-07-31T08:30:15;1.97;;;1.57;;
2610;SDS011;5612;51.134;17.058;2023-07-31T08:32:48;1.60;;;1.50;;
2610;SDS011;5612;51.134;17.058;2023-07-31T08:35:18;1.83;;;1.33;;
2610;SDS011;5612;51.134;17.058;2023-07-31T08:37:48;4.03;;;1.47;;
2610;SDS011;5612;51.134;17.058;2023-07-31T08:40:17;1.70;;;1.60;;
2610;SDS011;5612;51.134;17.058;2023-07-31T08:42:49;1.93;;;1.83;;
2610;SDS011;5612;51.134;17.058;2023-07-31T08:45:23;6.03;;;1.80;;
2610;SDS011;5612;51.134;17.058;2023-07-31T08:47:53;3.63;;;1.67;;
2610;SDS011;5612;51.134;17.058;2023-07-31T08:50:24;3.47;;;2.17;;
2610;SDS011;5612;51.134;17.058;2023-07-31T08:52:55;3.07;;;1.73;;
2610;SDS011;5612;51.134;17.058;2023-07-31T08:55:24;1.97;;;1.70;;
2610;SDS011;5612;51.134;17.058;2023-07-31T08:57:55;2.80;;;1.80;;
2610;SDS011;5612;51.134;17.058;2023-07-31T09:00:27;3.37;;;2.17;;
2610;SDS011;5612;51.134;17.058;2023-07-31T09:02:59;1.93;;;1.70;;
2610;SDS011;5612;51.134;17.058;2023-07-31T09:05:31;4.77;;;1.90;;
2610;SDS011;5612;51.134;17.058;2023-07-31T09:08:01;3.23;;;2.50;;
2610;SDS011;5612;51.134;17.058;2023-07-31T09:10:32;4.70;;;2.53;;
2610;SDS011;5612;51.134;17.058;2023-07-31T09:13:02;3.10;;;2.57;;
2610;SDS011;5612;51.134;17.058;2023-07-31T09:15:35;3.30;;;2.40;;
2610;SDS011;5612;51.134;17.058;2023-07-31T09:18:06;3.40;;;2.50;;
2610;SDS011;5612;51.134;17.058;2023-07-31T09:20:36;3.03;;;2.70;;
2610;SDS011;5612;51.134;17.058;2023-07-31T09:23:07;5.17;;;2.63;;
2610;SDS011;5612;51.134;17.058;2023-07-31T09:25:39;6.07;;;3.33;;
2610;SDS011;5612;51.134;17.058;2023-07-31T09:28:12;7.20;;;3.20;;
2610;SDS011;5612;51.134;17.058;2023-07-31T09:30:47;4.57;;;3.40;;
2610;SDS011;5612;51.134;17.058;2023-07-31T09:33:18;4.97;;;3.37;;
2610;SDS011;5612;51.134;17.058;2023-07-31T09:35:48;3.67;;;3.37;;
2610;SDS011;5612;51.134;17.058;2023-07-31T09:38:18;3.00;;;2.70;;
2610;SDS011;5612;51.134;17.058;2023-07-31T09:40:48;3.10;;;2.90;;
2610;SDS011;5612;51.134;17.058;2023-07-31T09:43:19;3.50;;;3.20;;
2610;SDS011;5612;51.134;17.058;2023-07-31T09:45:54;3.37;;;3.07;;
2610;SDS011;5612;51.134;17.058;2023-07-31T09:48:25;7.40;;;2.73;;
2610;SDS011;5612;51.134;17.058;2023-07-31T09:50:55;3.30;;;2.87;;
2610;SDS011;5612;51.134;17.058;2023-07-31T09:53:27;3.13;;;2.83;;
2610;SDS011;5612;51.134;17.058;2023-07-31T09:55:58;2.90;;;2.60;;
2610;SDS011;5612;51.134;17.058;2023-07-31T09:58:29;3.17;;;2.97;;
2610;SDS011;5612;51.134;17.058;2023-07-31T10:01:04;3.43;;;2.70;;
2610;SDS011;5612;51.134;17.058;2023-07-31T10:03:34;5.10;;;2.97;;
2610;SDS011;5612;51.134;17.058;2023-07-31T10:06:04;6.50;;;2.50;;
2610;SDS011;5612;51.134;17.058;2023-07-31T10:08:35;2.33;;;2.13;;
2610;SDS011;5612;51.134;17.058;2023-07-31T10:11:06;2.63;;;2.43;;
2610;SDS011;5612;51.134;17.058;2023-07-31T10:13:38;4.77;;;2.20;;
2610;SDS011;5612;51.134;17.058;2023-07-31T10:16:11;2.60;;;2.40;;
2610;SDS011;5612;51.134;17.058;2023-07-31T10:18:44;2.13;;;1.90;;
2610;SDS011;5612;51.134;17.058;2023-07-31T10:21:14;4.40;;;2.30;;
2610;SDS011;5612;51.134;17.058;2023-07-31T10:23:45;2.67;;;2.03;;
2610;SDS011;5612;51.134;17.058;2023-07-31T10:26:16;2.43;;;2.23;;
2610;SDS011;5612;51.134;17.058;2023-07-31T10:28:48;3.13;;;2.57;;
2610;SDS011;5612;51.134;17.058;2023-07-31T10:31:23;3.27;;;1.90;;
2610;SDS011;5612;51.134;17.058;2023-07-31T10:33:54;3.13;;;2.07;;
2610;SDS011;5612;51.134;17.058;2023-07-31T10:36:26;2.33;;;1.90;;
2610;SDS011;5612;51.134;17.058;2023-07-31T10:38:56;2.10;;;1.90;;
2610;SDS011;5612;51.134;17.058;2023-07-31T10:41:29;3.17;;;2.13;;
2610;SDS011;5612;51.134;17.058;2023-07-31T10:43:59;1.63;;;1.53;;
2610;SDS011;5612;51.134;17.058;2023-07-31T10:46:32;1.80;;;1.70;;
2610;SDS011;5612;51.134;17.058;2023-07-31T10:49:02;1.97;;;1.87;;
2610;SDS011;5612;51.134;17.058;2023-07-31T10:51:34;2.40;;;2.20;;
2610;SDS011;5612;51.134;17.058;2023-07-31T10:54:11;2.70;;;1.80;;
2610;SDS011;5612;51.134;17.058;2023-07-31T10:56:44;2.10;;;1.90;;
2610;SDS011;5612;51.134;17.058;2023-07-31T10:59:15;3.23;;;2.07;;
2610;SDS011;5612;51.134;17.058;2023-07-31T11:01:52;2.50;;;2.07;;
2610;SDS011;5612;51.134;17.058;2023-07-31T11:04:24;3.07;;;1.63;;
2610;SDS011;5612;51.134;17.058;2023-07-31T11:06:56;1.90;;;1.80;;
2610;SDS011;5612;51.134;17.058;2023-07-31T11:09:30;3.40;;;1.80;;
2610;SDS011;5612;51.134;17.058;2023-07-31T11:12:00;3.03;;;2.20;;
2610;SDS011;5612;51.134;17.058;2023-07-31T11:14:29;2.10;;;1.80;;
2610;SDS011;5612;51.134;17.058;2023-07-31T11:17:02;5.20;;;2.50;;
2610;SDS011;5612;51.134;17.058;2023-07-31T11:19:35;4.23;;;2.07;;
2610;SDS011;5612;51.134;17.058;2023-07-31T11:22:07;2.17;;;2.00;;
2610;SDS011;5612;51.134;17.058;2023-07-31T11:24:37;2.10;;;2.00;;
2610;SDS011;5612;51.134;17.058;2023-07-31T11:27:07;2.60;;;2.00;;
2610;SDS011;5612;51.134;17.058;2023-07-31T11:29:37;2.30;;;2.20;;
2610;SDS011;5612;51.134;17.058;2023-07-31T11:32:15;2.30;;;2.10;;
2610;SDS011;5612;51.134;17.058;2023-07-31T11:34:52;3.20;;;1.70;;
2610;SDS011;5612;51.134;17.058;2023-07-31T11:37:22;2.57;;;2.20;;
2610;SDS011;5612;51.134;17.058;2023-07-31T11:40:00;3.30;;;2.00;;
2610;SDS011;5612;51.134;17.058;2023-07-31T11:42:30;3.17;;;2.50;;
2610;SDS011;5612;51.134;17.058;2023-07-31T11:45:02;2.87;;;2.23;;
2610;SDS011;5612;51.134;17.058;2023-07-31T11:47:34;3.70;;;2.20;;
2610;SDS011;5612;51.134;17.058;2023-07-31T11:50:06;3.60;;;2.30;;
2610;SDS011;5612;51.134;17.058;2023-07-31T11:52:40;3.10;;;2.60;;
2610;SDS011;5612;51.134;17.058;2023-07-31T11:55:13;3.23;;;2.93;;
2610;SDS011;5612;51.134;17.058;2023-07-31T11:57:44;2.30;;;2.20;;
2610;SDS011;5612;51.134;17.058;2023-07-31T12:00:15;2.63;;;2.43;;
2610;SDS011;5612;51.134;17.058;2023-07-31T12:02:47;2.33;;;2.20;;
2610;SDS011;5612;51.134;17.058;2023-07-31T12:05:19;2.40;;;2.20;;
2610;SDS011;5612;51.134;17.058;2023-07-31T12:07:51;4.30;;;2.33;;
2610;SDS011;5612;51.134;17.058;2023-07-31T12:10:26;3.43;;;2.37;;
2610;SDS011;5612;51.134;17.058;2023-07-31T12:12:58;3.03;;;2.13;;
2610;SDS011;5612;51.134;17.058;2023-07-31T12:15:35;3.03;;;2.13;;
2610;SDS011;5612;51.134;17.058;2023-07-31T12:18:09;2.03;;;1.93;;
2610;SDS011;5612;51.134;17.058;2023-07-31T12:20:40;2.90;;;2.60;;
2610;SDS011;5612;51.134;17.058;2023-07-31T12:23:14;1.80;;;1.70;;
2610;SDS011;5612;51.134;17.058;2023-07-31T12:25:48;3.27;;;2.90;;
2610;SDS011;5612;51.134;17.058;2023-07-31T12:28:30;3.37;;;3.07;;
2610;SDS011;5612;51.134;17.058;2023-07-31T12:31:03;3.80;;;2.37;;
2610;SDS011;5612;51.134;17.058;2023-07-31T12:33:37;2.40;;;2.30;;
2610;SDS011;5612;51.134;17.058;2023-07-31T12:36:08;2.80;;;2.60;;
2610;SDS011;5612;51.134;17.058;2023-07-31T12:38:39;2.53;;;2.10;;
2610;SDS011;5612;51.134;17.058;2023-07-31T12:41:10;2.73;;;2.53;;
2610;SDS011;5612;51.134;17.058;2023-07-31T12:43:40;4.73;;;2.40;;
2610;SDS011;5612;51.134;17.058;2023-07-31T12:46:11;2.93;;;2.73;;
2610;SDS011;5612;51.134;17.058;2023-07-31T12:48:43;2.70;;;2.50;;
2610;SDS011;5612;51.134;17.058;2023-07-31T12:51:12;2.53;;;2.40;;
2610;SDS011;5612;51.134;17.058;2023-07-31T12:53:42;3.63;;;2.90;;
2610;SDS011;5612;51.134;17.058;2023-07-31T12:56:12;2.73;;;2.53;;
2610;SDS011;5612;51.134;17.058;2023-07-31T12:58:41;3.20;;;3.00;;
2610;SDS011;5612;51.134;17.058;2023-07-31T13:01:11;3.40;;;3.10;;
2610;SDS011;5612;51.134;17.058;2023-07-31T13:03:41;3.30;;;2.47;;
2610;SDS011;5612;51.134;17.058;2023-07-31T13:06:12;2.80;;;2.60;;
2610;SDS011;5612;51.134;17.058;2023-07-31T13:08:42;2.97;;;2.73;;
2610;SDS011;5612;51.134;17.058;2023-07-31T13:11:11;3.33;;;3.13;;
2610;SDS011;5612;51.134;17.058;2023-07-31T13:13:41;2.60;;;2.27;;
2610;SDS011;5612;51.134;17.058;2023-07-31T13:16:11;3.27;;;3.00;;
2610;SDS011;5612;51.134;17.058;2023-07-31T13:18:41;3.90;;;2.70;;
2610;SDS011;5612;51.134;17.058;2023-07-31T13:21:12;5.30;;;2.60;;
2610;SDS011;5612;51.134;17.058;2023-07-31T13:23:41;3.40;;;3.10;;
2610;SDS011;5612;51.134;17.058;2023-07-31T13:26:11;3.50;;;2.90;;
2610;SDS011;5612;51.134;17.058;2023-07-31T13:28:41;4.17;;;3.77;;
2610;SDS011;5612;51.134;17.058;2023-07-31T13:31:13;2.73;;;2.47;;
2610;SDS011;5612;51.134;17.058;2023-07-31T13:33:45;3.10;;;2.70;;
2610;SDS011;5612;51.134;17.058;2023-07-31T13:36:14;3.00;;;2.80;;
2610;SDS011;5612;51.134;17.058;2023-07-31T13:38:44;2.97;;;2.80;;
2610;SDS011;5612;51.134;17.058;2023-07-31T13:41:14;2.83;;;2.63;;
2610;SDS011;5612;51.134;17.058;2023-07-31T13:43:43;2.90;;;2.60;;
2610;SDS011;5612;51.134;17.058;2023-07-31T13:46:13;3.13;;;2.70;;
2610;SDS011;5612;51.134;17.058;2023-07-31T13:48:45;2.50;;;2.40;;
2610;SDS011;5612;51.134;17.058;2023-07-31T13:51:14;4.07;;;3.77;;
2610;SDS011;5612;51.134;17.058;2023-07-31T13:53:44;3.33;;;2.97;;
2610;SDS011;5612;51.134;17.058;2023-07-31T13:56:13;5.67;;;2.80;;
2610;SDS011;5612;51.134;17.058;2023-07-31T13:58:43;3.00;;;2.80;;
2610;SDS011;5612;51.134;17.058;2023-07-31T14:01:13;2.87;;;2.60;;
2610;SDS011;5612;51.134;17.058;2023-07-31T14:03:42;3.03;;;2.83;;
2610;SDS011;5612;51.134;17.058;2023-07-31T14:06:14;3.80;;;2.97;;
2610;SDS011;5612;51.134;17.058;2023-07-31T14:08:43;4.93;;;3.20;;
2610;SDS011;5612;51.134;17.058;2023-07-31T14:11:13;3.90;;;3.60;;
2610;SDS011;5612;51.134;17.058;2023-07-31T14:13:42;3.83;;;2.90;;
2610;SDS011;5612;51.134;17.058;2023-07-31T14:16:12;4.30;;;3.30;;
2610;SDS011;5612;51.134;17.058;2023-07-31T14:18:42;3.73;;;3.43;;
2610;SDS011;5612;51.134;17.058;2023-07-31T14:21:14;4.27;;;3.03;;
2610;SDS011;5612;51.134;17.058;2023-07-31T14:23:46;3.17;;;2.87;;
2610;SDS011;5612;51.134;17.058;2023-07-31T14:26:16;4.33;;;3.00;;
2610;SDS011;5612;51.134;17.058;2023-07-31T14:28:45;4.20;;;3.00;;
2610;SDS011;5612;51.134;17.058;2023-07-31T14:31:15;3.73;;;2.80;;
2610;SDS011;5612;51.134;17.058;2023-07-31T14:33:45;3.23;;;2.93;;
2610;SDS011;5612;51.134;17.058;2023-07-31T14:36:16;5.00;;;2.80;;
2610;SDS011;5612;51.134;17.058;2023-07-31T14:38:46;2.87;;;2.67;;
2610;SDS011;5612;51.134;17.058;2023-07-31T14:41:16;2.97;;;2.73;;
2610;SDS011;5612;51.134;17.058;2023-07-31T14:43:45;2.97;;;2.77;;
2610;SDS011;5612;51.134;17.058;2023-07-31T14:46:15;3.37;;;3.17;;
2610;SDS011;5612;51.134;17.058;2023-07-31T14:48:44;3.50;;;3.30;;
2610;SDS011;5612;51.134;17.058;2023-07-31T14:51:16;3.50;;;3.20;;
2610;SDS011;5612;51.134;17.058;2023-07-31T14:53:46;2.93;;;2.30;;
2610;SDS011;5612;51.134;17.058;2023-07-31T14:56:15;3.07;;;2.80;;
2610;SDS011;5612;51.134;17.058;2023-07-31T14:58:45;3.90;;;2.87;;
2610;SDS011;5612;51.134;17.058;2023-07-31T15:01:15;2.47;;;2.27;;
2610;SDS011;5612;51.134;17.058;2023-07-31T15:03:44;2.60;;;2.40;;
2610;SDS011;5612;51.134;17.058;2023-07-31T15:06:16;2.97;;;2.77;;
2610;SDS011;5612;51.134;17.058;2023-07-31T15:08:45;2.33;;;2.23;;
2610;SDS011;5612;51.134;17.058;2023-07-31T15:11:15;2.53;;;2.40;;
2610;SDS011;5612;51.134;17.058;2023-07-31T15:13:45;2.37;;;2.17;;
2610;SDS011;5612;51.134;17.058;2023-07-31T15:16:15;2.13;;;2.03;;
2610;SDS011;5612;51.134;17.058;2023-07-31T15:18:45;2.50;;;2.30;;
2610;SDS011;5612;51.134;17.058;2023-07-31T15:21:16;2.10;;;2.00;;